sensor_id;sensor_type;location;lat;lon;timestamp;temperature;humidity
2621;DHT22;1320;48.128;11.592;2022-08-02T00:01:45;19.70;99.90
2621;DHT22;1320;48.128;11.592;2022-08-02T00:04:11;19.70;99.90
2621;DHT22;1320;48.128;11.592;2022-08-02T00:06:37;19.70;99.90
2621;DHT22;1320;48.128;11.592;2022-08-02T00:09:04;19.60;99.90
2621;DHT22;1320;48.128;11.592;2022-08-02T00:11:30;19.60;99.90
2621;DHT22;1320;48.128;11.592;2022-08-02T00:13:56;19.60;99.90
2621;DHT22;1320;48.128;11.592;2022-08-02T00:16:22;19.60;99.90
2621;DHT22;1320;48.128;11.592;2022-08-02T00:18:48;19.50;99.90
2621;DHT22;1320;48.128;11.592;2022-08-02T00:21:13;19.50;99.90
2621;DHT22;1320;48.128;11.592;2022-08-02T00:23:39;19.50;99.90
2621;DHT22;1320;48.128;11.592;2022-08-02T00:26:05;19.40;99.90
2621;DHT22;1320;48.128;11.592;2022-08-02T00:28:30;19.40;99.90
2621;DHT22;1320;48.128;11.592;2022-08-02T00:30:57;19.40;99.90
2621;DHT22;1320;48.128;11.592;2022-08-02T00:33:23;19.40;99.90
2621;DHT22;1320;48.128;11.592;2022-08-02T00:35:48;19.30;99.90
2621;DHT22;1320;48.128;11.592;2022-08-02T00:38:14;19.40;99.90
2621;DHT22;1320;48.128;11.592;2022-08-02T00:40:46;19.30;99.90
2621;DHT22;1320;48.128;11.592;2022-08-02T00:43:11;19.40;99.90
2621;DHT22;1320;48.128;11.592;2022-08-02T00:45:39;19.40;99.90
2621;DHT22;1320;48.128;11.592;2022-08-02T00:48:06;19.40;99.90
2621;DHT22;1320;48.128;11.592;2022-08-02T00:50:33;19.40;99.90
2621;DHT22;1320;48.128;11.592;2022-08-02T00:52:59;19.40;99.90
2621;DHT22;1320;48.128;11.592;2022-08-02T00:55:25;19.40;99.90
2621;DHT22;1320;48.128;11.592;2022-08-02T00:57:51;19.40;99.90
2621;DHT22;1320;48.128;11.592;2022-08-02T01:00:17;19.50;99.90
2621;DHT22;1320;48.128;11.592;2022-08-02T01:02:43;19.50;99.90
2621;DHT22;1320;48.128;11.592;2022-08-02T01:05:09;19.50;99.90
2621;DHT22;1320;48.128;11.592;2022-08-02T01:07:35;19.50;99.90
2621;DHT22;1320;48.128;11.592;2022-08-02T01:10:00;19.50;99.90
2621;DHT22;1320;48.128;11.592;2022-08-02T01:12:26;19.50;99.90
2621;DHT22;1320;48.128;11.592;2022-08-02T01:14:55;19.50;99.90
2621;DHT22;1320;48.128;11.592;2022-08-02T01:28:34;19.60;99.90
2621;DHT22;1320;48.128;11.592;2022-08-02T01:31:06;19.50;99.90
2621;DHT22;1320;48.128;11.592;2022-08-02T01:33:42;19.50;99.90
2621;DHT22;1320;48.128;11.592;2022-08-02T01:36:10;19.50;99.90
2621;DHT22;1320;48.128;11.592;2022-08-02T01:38:40;19.40;99.90
2621;DHT22;1320;48.128;11.592;2022-08-02T01:41:09;19.40;99.90
2621;DHT22;1320;48.128;11.592;2022-08-02T01:43:39;19.40;99.90
2621;DHT22;1320;48.128;11.592;2022-08-02T01:46:07;19.40;99.90
2621;DHT22;1320;48.128;11.592;2022-08-02T01:48:35;19.40;99.90
2621;DHT22;1320;48.128;11.592;2022-08-02T01:51:02;19.40;99.90
2621;DHT22;1320;48.128;11.592;2022-08-02T01:53:29;19.40;99.90
2621;DHT22;1320;48.128;11.592;2022-08-02T01:55:57;19.40;99.90
2621;DHT22;1320;48.128;11.592;2022-08-02T01:58:26;19.30;99.90
2621;DHT22;1320;48.128;11.592;2022-08-02T02:00:55;19.30;99.90
2621;DHT22;1320;48.128;11.592;2022-08-02T02:03:23;19.30;99.90
2621;DHT22;1320;48.128;11.592;2022-08-02T02:05:51;19.30;99.90
2621;DHT22;1320;48.128;11.592;2022-08-02T02:08:28;19.30;99.90
2621;DHT22;1320;48.128;11.592;2022-08-02T02:10:58;19.20;99.90
2621;DHT22;1320;48.128;11.592;2022-08-02T02:13:26;19.20;99.90
2621;DHT22;1320;48.128;11.592;2022-08-02T02:15:53;19.20;99.90
2621;DHT22;1320;48.128;11.592;2022-08-02T02:18:26;19.20;99.90
2621;DHT22;1320;48.128;11.592;2022-08-02T02:20:54;19.20;99.90
2621;DHT22;1320;48.128;11.592;2022-08-02T02:23:20;19.20;99.90
2621;DHT22;1320;48.128;11.592;2022-08-02T02:25:47;19.20;99.90
2621;DHT22;1320;48.128;11.592;2022-08-02T02:28:20;19.20;99.90
2621;DHT22;1320;48.128;11.592;2022-08-02T02:30:51;19.20;99.90
2621;DHT22;1320;48.128;11.592;2022-08-02T02:33:20;19.20;99.90
2621;DHT22;1320;48.128;11.592;2022-08-02T02:35:49;19.10;99.90
2621;DHT22;1320;48.128;11.592;2022-08-02T02:38:17;19.10;99.90
2621;DHT22;1320;48.128;11.592;2022-08-02T02:40:45;19.10;99.90
2621;DHT22;1320;48.128;11.592;2022-08-02T02:43:13;19.10;99.90
2621;DHT22;1320;48.128;11.592;2022-08-02T02:45:39;19.10;99.90
2621;DHT22;1320;48.128;11.592;2022-08-02T02:48:06;19.20;99.90
2621;DHT22;1320;48.128;11.592;2022-08-02T02:50:33;19.20;99.90
2621;DHT22;1320;48.128;11.592;2022-08-02T02:53:00;19.20;99.90
2621;DHT22;1320;48.128;11.592;2022-08-02T02:55:27;19.20;99.90
2621;DHT22;1320;48.128;11.592;2022-08-02T02:57:54;19.30;99.90
2621;DHT22;1320;48.128;11.592;2022-08-02T03:00:20;19.30;99.90
2621;DHT22;1320;48.128;11.592;2022-08-02T03:03:06;19.30;99.90
2621;DHT22;1320;48.128;11.592;2022-08-02T03:05:32;19.30;99.90
2621;DHT22;1320;48.128;11.592;2022-08-02T03:07:57;19.30;99.90
2621;DHT22;1320;48.128;11.592;2022-08-02T03:10:23;19.30;99.90
2621;DHT22;1320;48.128;11.592;2022-08-02T03:12:49;19.30;99.90
2621;DHT22;1320;48.128;11.592;2022-08-02T03:15:16;19.30;99.90
2621;DHT22;1320;48.128;11.592;2022-08-02T03:17:44;19.40;99.90
2621;DHT22;1320;48.128;11.592;2022-08-02T03:20:15;19.40;99.90
2621;DHT22;1320;48.128;11.592;2022-08-02T03:22:42;19.40;99.90
2621;DHT22;1320;48.128;11.592;2022-08-02T03:25:09;19.40;99.90
2621;DHT22;1320;48.128;11.592;2022-08-02T03:27:35;19.40;99.90
2621;DHT22;1320;48.128;11.592;2022-08-02T03:30:01;19.40;99.90
2621;DHT22;1320;48.128;11.592;2022-08-02T03:32:27;19.40;99.90
2621;DHT22;1320;48.128;11.592;2022-08-02T03:34:53;19.50;99.90
2621;DHT22;1320;48.128;11.592;2022-08-02T03:37:20;19.50;99.90
2621;DHT22;1320;48.128;11.592;2022-08-02T03:39:46;19.50;99.90
2621;DHT22;1320;48.128;11.592;2022-08-02T03:42:13;19.50;99.90
2621;DHT22;1320;48.128;11.592;2022-08-02T03:44:39;19.50;99.90
2621;DHT22;1320;48.128;11.592;2022-08-02T03:47:07;19.60;99.90
2621;DHT22;1320;48.128;11.592;2022-08-02T03:49:33;19.60;99.90
2621;DHT22;1320;48.128;11.592;2022-08-02T03:52:00;19.60;99.90
2621;DHT22;1320;48.128;11.592;2022-08-02T03:54:26;19.60;99.90
2621;DHT22;1320;48.128;11.592;2022-08-02T03:56:52;19.60;99.90
2621;DHT22;1320;48.128;11.592;2022-08-02T03:59:18;19.60;99.90
2621;DHT22;1320;48.128;11.592;2022-08-02T04:01:43;19.60;99.90
2621;DHT22;1320;48.128;11.592;2022-08-02T04:04:10;19.50;99.90
2621;DHT22;1320;48.128;11.592;2022-08-02T04:06:36;19.50;99.90
2621;DHT22;1320;48.128;11.592;2022-08-02T04:09:01;19.50;99.90
2621;DHT22;1320;48.128;11.592;2022-08-02T04:11:27;19.50;99.90
2621;DHT22;1320;48.128;11.592;2022-08-02T04:14:02;19.50;99.90
2621;DHT22;1320;48.128;11.592;2022-08-02T04:16:51;19.50;99.90
2621;DHT22;1320;48.128;11.592;2022-08-02T04:19:39;19.50;99.90
2621;DHT22;1320;48.128;11.592;2022-08-02T04:22:13;19.50;99.90
2621;DHT22;1320;48.128;11.592;2022-08-02T04:24:46;19.40;99.90
2621;DHT22;1320;48.128;11.592;2022-08-02T04:27:14;19.40;99.90
2621;DHT22;1320;48.128;11.592;2022-08-02T04:29:40;19.40;99.90
2621;DHT22;1320;48.128;11.592;2022-08-02T04:32:07;19.40;99.90
2621;DHT22;1320;48.128;11.592;2022-08-02T04:34:33;19.40;99.90
2621;DHT22;1320;48.128;11.592;2022-08-02T04:36:59;19.40;99.90
2621;DHT22;1320;48.128;11.592;2022-08-02T04:39:25;19.40;99.90
2621;DHT22;1320;48.128;11.592;2022-08-02T04:41:51;19.40;99.90
2621;DHT22;1320;48.128;11.592;2022-08-02T04:44:16;19.40;99.90
2621;DHT22;1320;48.128;11.592;2022-08-02T04:46:43;19.40;99.90
2621;DHT22;1320;48.128;11.592;2022-08-02T04:49:10;19.40;99.90
2621;DHT22;1320;48.128;11.592;2022-08-02T04:51:39;19.40;99.90
2621;DHT22;1320;48.128;11.592;2022-08-02T04:54:05;19.50;99.90
2621;DHT22;1320;48.128;11.592;2022-08-02T04:56:31;19.50;99.90
2621;DHT22;1320;48.128;11.592;2022-08-02T04:58:57;19.60;99.90
2621;DHT22;1320;48.128;11.592;2022-08-02T05:01:23;19.60;99.90
2621;DHT22;1320;48.128;11.592;2022-08-02T05:03:48;19.70;99.90
2621;DHT22;1320;48.128;11.592;2022-08-02T05:06:14;19.80;99.90
2621;DHT22;1320;48.128;11.592;2022-08-02T05:08:40;19.80;99.90
2621;DHT22;1320;48.128;11.592;2022-08-02T05:11:06;19.80;99.90
2621;DHT22;1320;48.128;11.592;2022-08-02T05:13:32;19.90;99.90
2621;DHT22;1320;48.128;11.592;2022-08-02T05:15:57;19.90;99.90
2621;DHT22;1320;48.128;11.592;2022-08-02T05:18:26;19.90;99.90
2621;DHT22;1320;48.128;11.592;2022-08-02T05:20:53;19.90;99.90
2621;DHT22;1320;48.128;11.592;2022-08-02T05:23:19;19.90;99.90
2621;DHT22;1320;48.128;11.592;2022-08-02T05:25:44;20.00;99.90
2621;DHT22;1320;48.128;11.592;2022-08-02T05:28:10;19.90;99.90
2621;DHT22;1320;48.128;11.592;2022-08-02T05:30:36;20.00;99.90
2621;DHT22;1320;48.128;11.592;2022-08-02T05:33:01;20.00;99.90
2621;DHT22;1320;48.128;11.592;2022-08-02T05:35:27;20.00;99.90
2621;DHT22;1320;48.128;11.592;2022-08-02T05:37:53;20.00;99.90
2621;DHT22;1320;48.128;11.592;2022-08-02T05:40:19;20.00;99.90
2621;DHT22;1320;48.128;11.592;2022-08-02T05:42:45;20.10;99.90
2621;DHT22;1320;48.128;11.592;2022-08-02T05:45:10;20.10;99.90
2621;DHT22;1320;48.128;11.592;2022-08-02T05:47:37;20.20;99.90
2621;DHT22;1320;48.128;11.592;2022-08-02T05:50:05;20.30;99.90
2621;DHT22;1320;48.128;11.592;2022-08-02T05:52:47;20.40;99.90
2621;DHT22;1320;48.128;11.592;2022-08-02T06:00:21;20.60;99.90
2621;DHT22;1320;48.128;11.592;2022-08-02T06:05:32;20.90;99.90
2621;DHT22;1320;48.128;11.592;2022-08-02T06:07:58;21.00;99.90
2621;DHT22;1320;48.128;11.592;2022-08-02T06:10:26;21.20;99.90
2621;DHT22;1320;48.128;11.592;2022-08-02T06:13:09;21.30;99.90
2621;DHT22;1320;48.128;11.592;2022-08-02T06:15:39;21.40;99.90
2621;DHT22;1320;48.128;11.592;2022-08-02T06:18:06;21.50;99.90
2621;DHT22;1320;48.128;11.592;2022-08-02T06:20:33;21.70;99.90
2621;DHT22;1320;48.128;11.592;2022-08-02T06:23:08;21.70;99.90
2621;DHT22;1320;48.128;11.592;2022-08-02T06:25:37;21.70;99.90
2621;DHT22;1320;48.128;11.592;2022-08-02T06:28:05;21.80;99.90
2621;DHT22;1320;48.128;11.592;2022-08-02T06:30:32;21.80;99.90
2621;DHT22;1320;48.128;11.592;2022-08-02T06:32:58;21.80;99.90
2621;DHT22;1320;48.128;11.592;2022-08-02T06:38:24;21.90;99.90
2621;DHT22;1320;48.128;11.592;2022-08-02T06:41:04;21.90;99.90
2621;DHT22;1320;48.128;11.592;2022-08-02T06:43:46;22.10;99.90
2621;DHT22;1320;48.128;11.592;2022-08-02T06:46:14;22.20;99.90
2621;DHT22;1320;48.128;11.592;2022-08-02T06:48:40;22.30;99.90
2621;DHT22;1320;48.128;11.592;2022-08-02T06:51:06;22.40;99.90
2621;DHT22;1320;48.128;11.592;2022-08-02T06:53:32;22.40;99.90
2621;DHT22;1320;48.128;11.592;2022-08-02T06:55:58;22.50;99.90
2621;DHT22;1320;48.128;11.592;2022-08-02T06:58:23;22.60;99.90
2621;DHT22;1320;48.128;11.592;2022-08-02T07:00:49;22.70;99.90
2621;DHT22;1320;48.128;11.592;2022-08-02T07:03:16;22.80;99.90
2621;DHT22;1320;48.128;11.592;2022-08-02T07:05:42;22.80;99.90
2621;DHT22;1320;48.128;11.592;2022-08-02T07:08:16;22.80;99.90
2621;DHT22;1320;48.128;11.592;2022-08-02T07:10:42;22.80;99.90
2621;DHT22;1320;48.128;11.592;2022-08-02T07:13:08;22.90;99.90
2621;DHT22;1320;48.128;11.592;2022-08-02T07:15:35;23.00;99.90
2621;DHT22;1320;48.128;11.592;2022-08-02T07:18:01;23.00;99.90
2621;DHT22;1320;48.128;11.592;2022-08-02T07:20:26;23.00;99.90
2621;DHT22;1320;48.128;11.592;2022-08-02T07:22:52;23.10;99.90
2621;DHT22;1320;48.128;11.592;2022-08-02T07:25:18;23.20;99.90
2621;DHT22;1320;48.128;11.592;2022-08-02T07:27:43;23.30;99.90
2621;DHT22;1320;48.128;11.592;2022-08-02T07:30:09;23.40;99.90
2621;DHT22;1320;48.128;11.592;2022-08-02T07:32:35;23.50;99.90
2621;DHT22;1320;48.128;11.592;2022-08-02T07:35:01;23.60;99.90
2621;DHT22;1320;48.128;11.592;2022-08-02T07:37:29;23.70;99.90
2621;DHT22;1320;48.128;11.592;2022-08-02T07:39:55;23.80;99.90
2621;DHT22;1320;48.128;11.592;2022-08-02T07:42:22;23.80;99.90
2621;DHT22;1320;48.128;11.592;2022-08-02T07:44:47;23.90;99.90
2621;DHT22;1320;48.128;11.592;2022-08-02T07:47:13;24.00;99.90
2621;DHT22;1320;48.128;11.592;2022-08-02T07:49:39;24.00;99.90
2621;DHT22;1320;48.128;11.592;2022-08-02T07:52:04;24.10;99.90
2621;DHT22;1320;48.128;11.592;2022-08-02T07:54:30;24.20;99.90
2621;DHT22;1320;48.128;11.592;2022-08-02T07:56:56;24.30;99.90
2621;DHT22;1320;48.128;11.592;2022-08-02T07:59:22;24.30;99.90
2621;DHT22;1320;48.128;11.592;2022-08-02T08:01:48;24.40;99.90
2621;DHT22;1320;48.128;11.592;2022-08-02T08:04:15;24.40;99.90
2621;DHT22;1320;48.128;11.592;2022-08-02T08:06:40;24.50;99.90
2621;DHT22;1320;48.128;11.592;2022-08-02T08:09:06;24.60;99.90
2621;DHT22;1320;48.128;11.592;2022-08-02T08:11:32;24.70;99.90
2621;DHT22;1320;48.128;11.592;2022-08-02T08:13:57;24.80;99.90
2621;DHT22;1320;48.128;11.592;2022-08-02T08:16:23;25.00;99.90
2621;DHT22;1320;48.128;11.592;2022-08-02T08:18:51;25.60;99.90
2621;DHT22;1320;48.128;11.592;2022-08-02T08:21:17;26.00;99.90
2621;DHT22;1320;48.128;11.592;2022-08-02T08:23:43;26.20;99.90
2621;DHT22;1320;48.128;11.592;2022-08-02T08:26:08;26.20;99.70
2621;DHT22;1320;48.128;11.592;2022-08-02T08:28:34;26.10;99.90
2621;DHT22;1320;48.128;11.592;2022-08-02T08:31:00;26.10;99.90
2621;DHT22;1320;48.128;11.592;2022-08-02T08:33:26;26.20;99.60
2621;DHT22;1320;48.128;11.592;2022-08-02T08:35:52;26.10;99.60
2621;DHT22;1320;48.128;11.592;2022-08-02T08:38:18;26.10;99.70
2621;DHT22;1320;48.128;11.592;2022-08-02T08:40:48;26.10;99.90
2621;DHT22;1320;48.128;11.592;2022-08-02T08:43:14;26.00;99.90
2621;DHT22;1320;48.128;11.592;2022-08-02T08:45:46;26.10;99.70
2621;DHT22;1320;48.128;11.592;2022-08-02T08:48:14;26.30;99.10
2621;DHT22;1320;48.128;11.592;2022-08-02T08:53:15;26.50;98.30
2621;DHT22;1320;48.128;11.592;2022-08-02T08:55:41;26.70;98.60
2621;DHT22;1320;48.128;11.592;2022-08-02T08:58:07;27.20;97.50
2621;DHT22;1320;48.128;11.592;2022-08-02T09:00:35;27.80;96.90
2621;DHT22;1320;48.128;11.592;2022-08-02T09:03:02;28.30;95.60
2621;DHT22;1320;48.128;11.592;2022-08-02T09:05:28;28.90;95.20
2621;DHT22;1320;48.128;11.592;2022-08-02T09:07:54;29.40;93.30
2621;DHT22;1320;48.128;11.592;2022-08-02T09:15:41;30.70;91.60
2621;DHT22;1320;48.128;11.592;2022-08-02T09:18:08;31.00;90.20
2621;DHT22;1320;48.128;11.592;2022-08-02T09:20:35;31.20;90.30
2621;DHT22;1320;48.128;11.592;2022-08-02T09:23:15;31.10;90.10
2621;DHT22;1320;48.128;11.592;2022-08-02T09:25:41;31.20;88.10
2621;DHT22;1320;48.128;11.592;2022-08-02T09:33:08;31.90;99.90
2621;DHT22;1320;48.128;11.592;2022-08-02T09:35:38;32.20;93.40
2621;DHT22;1320;48.128;11.592;2022-08-02T09:38:11;32.50;82.70
2621;DHT22;1320;48.128;11.592;2022-08-02T09:40:39;32.50;82.90
2621;DHT22;1320;48.128;11.592;2022-08-02T09:43:05;32.30;82.60
2621;DHT22;1320;48.128;11.592;2022-08-02T09:45:32;32.10;83.70
2621;DHT22;1320;48.128;11.592;2022-08-02T09:48:05;32.00;82.40
2621;DHT22;1320;48.128;11.592;2022-08-02T09:50:32;31.90;84.10
2621;DHT22;1320;48.128;11.592;2022-08-02T09:52:58;32.10;82.80
2621;DHT22;1320;48.128;11.592;2022-08-02T09:55:25;32.40;82.90
2621;DHT22;1320;48.128;11.592;2022-08-02T09:57:51;32.60;82.70
2621;DHT22;1320;48.128;11.592;2022-08-02T10:00:17;32.60;81.50
2621;DHT22;1320;48.128;11.592;2022-08-02T10:03:09;32.60;81.10
2621;DHT22;1320;48.128;11.592;2022-08-02T10:06:05;32.60;79.70
2621;DHT22;1320;48.128;11.592;2022-08-02T10:08:31;32.80;80.20
2621;DHT22;1320;48.128;11.592;2022-08-02T10:10:57;32.60;81.10
2621;DHT22;1320;48.128;11.592;2022-08-02T10:13:33;32.50;81.00
2621;DHT22;1320;48.128;11.592;2022-08-02T10:16:00;32.50;79.80
2621;DHT22;1320;48.128;11.592;2022-08-02T10:18:27;32.10;81.40
2621;DHT22;1320;48.128;11.592;2022-08-02T10:20:55;31.90;82.50
2621;DHT22;1320;48.128;11.592;2022-08-02T10:23:23;32.10;80.10
2621;DHT22;1320;48.128;11.592;2022-08-02T10:25:50;32.50;79.20
2621;DHT22;1320;48.128;11.592;2022-08-02T10:28:19;32.90;78.40
2621;DHT22;1320;48.128;11.592;2022-08-02T10:30:52;33.10;77.50
2621;DHT22;1320;48.128;11.592;2022-08-02T10:33:20;33.20;77.80
2621;DHT22;1320;48.128;11.592;2022-08-02T10:35:49;33.10;76.40
2621;DHT22;1320;48.128;11.592;2022-08-02T10:38:17;33.20;77.30
2621;DHT22;1320;48.128;11.592;2022-08-02T10:40:49;33.20;77.80
2621;DHT22;1320;48.128;11.592;2022-08-02T10:43:45;33.20;77.40
2621;DHT22;1320;48.128;11.592;2022-08-02T10:54:35;33.50;76.40
2621;DHT22;1320;48.128;11.592;2022-08-02T10:57:02;33.40;73.90
2621;DHT22;1320;48.128;11.592;2022-08-02T10:59:33;33.40;73.60
2621;DHT22;1320;48.128;11.592;2022-08-02T11:02:04;33.00;75.00
2621;DHT22;1320;48.128;11.592;2022-08-02T11:09:31;32.60;76.30
2621;DHT22;1320;48.128;11.592;2022-08-02T11:12:06;32.50;76.80
2621;DHT22;1320;48.128;11.592;2022-08-02T11:14:37;32.50;76.80
2621;DHT22;1320;48.128;11.592;2022-08-02T11:19:31;32.80;76.60
2621;DHT22;1320;48.128;11.592;2022-08-02T11:22:05;32.80;75.90
2621;DHT22;1320;48.128;11.592;2022-08-02T11:24:33;32.60;75.30
2621;DHT22;1320;48.128;11.592;2022-08-02T11:27:07;32.50;75.40
2621;DHT22;1320;48.128;11.592;2022-08-02T11:29:34;32.30;75.20
2621;DHT22;1320;48.128;11.592;2022-08-02T11:32:00;32.10;77.00
2621;DHT22;1320;48.128;11.592;2022-08-02T11:34:26;32.00;77.20
2621;DHT22;1320;48.128;11.592;2022-08-02T11:36:52;32.10;78.20
2621;DHT22;1320;48.128;11.592;2022-08-02T11:39:20;32.20;77.20
2621;DHT22;1320;48.128;11.592;2022-08-02T11:41:54;32.30;77.40
2621;DHT22;1320;48.128;11.592;2022-08-02T11:44:22;32.20;75.80
2621;DHT22;1320;48.128;11.592;2022-08-02T11:47:00;32.30;77.80
2621;DHT22;1320;48.128;11.592;2022-08-02T11:49:27;32.40;75.40
2621;DHT22;1320;48.128;11.592;2022-08-02T11:52:00;32.50;77.00
2621;DHT22;1320;48.128;11.592;2022-08-02T11:54:40;32.50;76.60
2621;DHT22;1320;48.128;11.592;2022-08-02T11:57:20;32.40;77.40
2621;DHT22;1320;48.128;11.592;2022-08-02T11:59:48;32.50;76.80
2621;DHT22;1320;48.128;11.592;2022-08-02T12:02:15;32.60;76.60
2621;DHT22;1320;48.128;11.592;2022-08-02T12:04:41;32.60;75.40
2621;DHT22;1320;48.128;11.592;2022-08-02T12:07:08;32.80;75.00
2621;DHT22;1320;48.128;11.592;2022-08-02T12:09:35;32.90;72.90
2621;DHT22;1320;48.128;11.592;2022-08-02T12:12:02;33.00;74.40
2621;DHT22;1320;48.128;11.592;2022-08-02T12:14:29;33.20;73.00
2621;DHT22;1320;48.128;11.592;2022-08-02T12:16:55;33.40;69.50
2621;DHT22;1320;48.128;11.592;2022-08-02T12:19:41;33.50;70.90
2621;DHT22;1320;48.128;11.592;2022-08-02T12:22:25;33.60;70.00
2621;DHT22;1320;48.128;11.592;2022-08-02T12:24:56;33.70;68.10
2621;DHT22;1320;48.128;11.592;2022-08-02T12:27:38;33.70;69.70
2621;DHT22;1320;48.128;11.592;2022-08-02T12:30:17;33.90;68.00
2621;DHT22;1320;48.128;11.592;2022-08-02T12:32:44;33.90;67.60
2621;DHT22;1320;48.128;11.592;2022-08-02T12:35:17;33.80;70.00
2621;DHT22;1320;48.128;11.592;2022-08-02T12:37:47;33.90;68.60
2621;DHT22;1320;48.128;11.592;2022-08-02T12:40:31;33.90;66.60
2621;DHT22;1320;48.128;11.592;2022-08-02T12:42:59;33.90;66.40
2621;DHT22;1320;48.128;11.592;2022-08-02T12:45:28;34.00;66.20
2621;DHT22;1320;48.128;11.592;2022-08-02T12:47:56;33.90;66.40
2621;DHT22;1320;48.128;11.592;2022-08-02T12:50:26;33.90;64.60
2621;DHT22;1320;48.128;11.592;2022-08-02T12:53:13;33.90;65.00
2621;DHT22;1320;48.128;11.592;2022-08-02T12:55:59;34.00;65.40
2621;DHT22;1320;48.128;11.592;2022-08-02T12:58:27;34.00;65.70
2621;DHT22;1320;48.128;11.592;2022-08-02T13:00:57;34.00;63.90
2621;DHT22;1320;48.128;11.592;2022-08-02T13:03:24;34.20;65.60
2621;DHT22;1320;48.128;11.592;2022-08-02T13:05:50;34.40;62.30
2621;DHT22;1320;48.128;11.592;2022-08-02T13:08:16;34.70;61.50
2621;DHT22;1320;48.128;11.592;2022-08-02T13:10:42;34.60;63.80
2621;DHT22;1320;48.128;11.592;2022-08-02T13:13:08;34.60;66.60
2621;DHT22;1320;48.128;11.592;2022-08-02T13:15:35;34.60;67.70
2621;DHT22;1320;48.128;11.592;2022-08-02T13:18:01;34.80;67.00
2621;DHT22;1320;48.128;11.592;2022-08-02T13:20:27;35.10;67.20
2621;DHT22;1320;48.128;11.592;2022-08-02T13:22:54;35.20;65.90
2621;DHT22;1320;48.128;11.592;2022-08-02T13:25:20;35.30;65.60
2621;DHT22;1320;48.128;11.592;2022-08-02T13:27:48;35.40;65.70
2621;DHT22;1320;48.128;11.592;2022-08-02T13:30:14;35.30;62.00
2621;DHT22;1320;48.128;11.592;2022-08-02T13:32:40;35.30;63.50
2621;DHT22;1320;48.128;11.592;2022-08-02T13:35:06;35.30;62.80
2621;DHT22;1320;48.128;11.592;2022-08-02T13:37:32;35.40;63.90
2621;DHT22;1320;48.128;11.592;2022-08-02T13:39:57;35.40;61.10
2621;DHT22;1320;48.128;11.592;2022-08-02T13:42:23;35.30;61.70
2621;DHT22;1320;48.128;11.592;2022-08-02T13:44:49;35.40;60.20
2621;DHT22;1320;48.128;11.592;2022-08-02T13:47:15;35.40;60.20
2621;DHT22;1320;48.128;11.592;2022-08-02T13:49:40;35.50;60.40
2621;DHT22;1320;48.128;11.592;2022-08-02T13:52:06;35.60;59.80
2621;DHT22;1320;48.128;11.592;2022-08-02T13:54:32;35.60;60.90
2621;DHT22;1320;48.128;11.592;2022-08-02T13:56:58;35.90;61.30
2621;DHT22;1320;48.128;11.592;2022-08-02T13:59:24;35.90;61.90
2621;DHT22;1320;48.128;11.592;2022-08-02T14:01:51;35.90;61.90
2621;DHT22;1320;48.128;11.592;2022-08-02T14:04:16;36.00;60.00
2621;DHT22;1320;48.128;11.592;2022-08-02T14:06:42;36.10;57.70
2621;DHT22;1320;48.128;11.592;2022-08-02T14:09:08;36.20;58.90
2621;DHT22;1320;48.128;11.592;2022-08-02T14:11:34;36.20;58.80
2621;DHT22;1320;48.128;11.592;2022-08-02T14:13:59;36.30;58.80
2621;DHT22;1320;48.128;11.592;2022-08-02T14:16:25;36.40;59.10
2621;DHT22;1320;48.128;11.592;2022-08-02T14:18:51;36.40;59.30
2621;DHT22;1320;48.128;11.592;2022-08-02T14:21:16;36.40;58.10
2621;DHT22;1320;48.128;11.592;2022-08-02T14:23:42;36.40;58.00
2621;DHT22;1320;48.128;11.592;2022-08-02T14:26:07;36.60;56.90
2621;DHT22;1320;48.128;11.592;2022-08-02T14:28:35;36.70;56.50
2621;DHT22;1320;48.128;11.592;2022-08-02T14:31:01;36.70;57.20
2621;DHT22;1320;48.128;11.592;2022-08-02T14:33:27;36.40;57.20
2621;DHT22;1320;48.128;11.592;2022-08-02T14:35:53;36.10;57.80
2621;DHT22;1320;48.128;11.592;2022-08-02T14:38:18;35.80;58.20
2621;DHT22;1320;48.128;11.592;2022-08-02T14:40:45;35.50;57.30
2621;DHT22;1320;48.128;11.592;2022-08-02T14:43:11;35.40;59.90
2621;DHT22;1320;48.128;11.592;2022-08-02T14:45:56;35.40;58.60
2621;DHT22;1320;48.128;11.592;2022-08-02T14:48:22;35.60;57.20
2621;DHT22;1320;48.128;11.592;2022-08-02T14:50:47;35.80;57.40
2621;DHT22;1320;48.128;11.592;2022-08-02T14:53:13;36.00;57.10
2621;DHT22;1320;48.128;11.592;2022-08-02T14:55:40;36.10;57.80
2621;DHT22;1320;48.128;11.592;2022-08-02T14:58:05;36.40;56.10
2621;DHT22;1320;48.128;11.592;2022-08-02T15:00:31;36.40;56.50
2621;DHT22;1320;48.128;11.592;2022-08-02T15:02:57;36.50;56.80
2621;DHT22;1320;48.128;11.592;2022-08-02T15:05:22;36.40;56.80
2621;DHT22;1320;48.128;11.592;2022-08-02T15:07:48;36.50;56.30
2621;DHT22;1320;48.128;11.592;2022-08-02T15:10:14;36.40;56.40
2621;DHT22;1320;48.128;11.592;2022-08-02T15:12:39;36.20;56.30
2621;DHT22;1320;48.128;11.592;2022-08-02T15:15:06;35.90;56.00
2621;DHT22;1320;48.128;11.592;2022-08-02T15:17:31;35.50;56.40
2621;DHT22;1320;48.128;11.592;2022-08-02T15:19:57;35.10;57.30
2621;DHT22;1320;48.128;11.592;2022-08-02T15:22:23;34.60;57.60
2621;DHT22;1320;48.128;11.592;2022-08-02T15:24:49;34.40;58.40
2621;DHT22;1320;48.128;11.592;2022-08-02T15:27:15;34.10;59.30
2621;DHT22;1320;48.128;11.592;2022-08-02T15:29:45;34.00;59.40
2621;DHT22;1320;48.128;11.592;2022-08-02T15:32:11;34.20;58.90
2621;DHT22;1320;48.128;11.592;2022-08-02T15:34:37;34.60;59.00
2621;DHT22;1320;48.128;11.592;2022-08-02T15:37:03;35.10;57.30
2621;DHT22;1320;48.128;11.592;2022-08-02T15:39:29;35.50;57.10
2621;DHT22;1320;48.128;11.592;2022-08-02T15:41:55;35.90;57.20
2621;DHT22;1320;48.128;11.592;2022-08-02T15:44:20;36.30;56.80
2621;DHT22;1320;48.128;11.592;2022-08-02T15:46:46;36.60;57.60
2621;DHT22;1320;48.128;11.592;2022-08-02T15:49:12;37.10;56.90
2621;DHT22;1320;48.128;11.592;2022-08-02T15:51:38;37.40;55.80
2621;DHT22;1320;48.128;11.592;2022-08-02T15:54:03;37.70;54.70
2621;DHT22;1320;48.128;11.592;2022-08-02T15:56:29;37.70;54.40
2621;DHT22;1320;48.128;11.592;2022-08-02T15:58:55;37.80;54.10
2621;DHT22;1320;48.128;11.592;2022-08-02T16:01:20;38.10;53.60
2621;DHT22;1320;48.128;11.592;2022-08-02T16:03:46;38.50;53.30
2621;DHT22;1320;48.128;11.592;2022-08-02T16:06:12;38.80;52.10
2621;DHT22;1320;48.128;11.592;2022-08-02T16:08:40;39.00;52.60
2621;DHT22;1320;48.128;11.592;2022-08-02T16:11:05;39.20;50.90
2621;DHT22;1320;48.128;11.592;2022-08-02T16:13:31;39.00;51.20
2621;DHT22;1320;48.128;11.592;2022-08-02T16:16:15;38.80;51.00
2621;DHT22;1320;48.128;11.592;2022-08-02T16:18:41;38.70;50.80
2621;DHT22;1320;48.128;11.592;2022-08-02T16:21:07;38.70;52.20
2621;DHT22;1320;48.128;11.592;2022-08-02T16:23:33;38.80;51.90
2621;DHT22;1320;48.128;11.592;2022-08-02T16:25:59;39.20;52.10
2621;DHT22;1320;48.128;11.592;2022-08-02T16:28:24;39.50;51.50
2621;DHT22;1320;48.128;11.592;2022-08-02T16:30:50;39.60;51.40
2621;DHT22;1320;48.128;11.592;2022-08-02T16:33:16;39.80;51.10
2621;DHT22;1320;48.128;11.592;2022-08-02T16:35:41;39.90;50.60
2621;DHT22;1320;48.128;11.592;2022-08-02T16:38:07;39.80;51.10
2621;DHT22;1320;48.128;11.592;2022-08-02T16:40:33;39.90;51.90